sensor_id;sensor_type;location;lat;lon;timestamp;temperature;humidity
71082;SHT31;58740;50.672;18.690;2023-04-15T00:01:41;11.61;75.93
71082;SHT31;58740;50.672;18.690;2023-04-15T00:04:09;11.60;75.94
71082;SHT31;58740;50.672;18.690;2023-04-15T00:06:37;11.61;75.96
71082;SHT31;58740;50.672;18.690;2023-04-15T00:09:06;11.58;76.04
71082;SHT31;58740;50.672;18.690;2023-04-15T00:11:33;11.56;76.12
71082;SHT31;58740;50.672;18.690;2023-04-15T00:14:01;11.55;76.10
71082;SHT31;58740;50.672;18.690;2023-04-15T00:16:29;11.53;76.19
71082;SHT31;58740;50.672;18.690;2023-04-15T00:18:57;11.52;76.16
71082;SHT31;58740;50.672;18.690;2023-04-15T00:21:25;11.52;76.23
71082;SHT31;58740;50.672;18.690;2023-04-15T00:23:55;11.49;76.26
71082;SHT31;58740;50.672;18.690;2023-04-15T00:26:23;11.50;76.24
71082;SHT31;58740;50.672;18.690;2023-04-15T00:28:51;11.47;76.40
71082;SHT31;58740;50.672;18.690;2023-04-15T00:31:19;11.44;76.52
71082;SHT31;58740;50.672;18.690;2023-04-15T00:33:47;11.41;76.47
71082;SHT31;58740;50.672;18.690;2023-04-15T00:36:14;11.39;76.47
71082;SHT31;58740;50.672;18.690;2023-04-15T00:38:42;11.39;76.51
71082;SHT31;58740;50.672;18.690;2023-04-15T00:41:10;11.38;76.45
71082;SHT31;58740;50.672;18.690;2023-04-15T00:43:39;11.37;76.46
71082;SHT31;58740;50.672;18.690;2023-04-15T00:46:07;11.35;76.43
71082;SHT31;58740;50.672;18.690;2023-04-15T00:48:36;11.33;76.61
71082;SHT31;58740;50.672;18.690;2023-04-15T00:51:05;11.29;76.60
71082;SHT31;58740;50.672;18.690;2023-04-15T00:53:33;11.25;76.60
71082;SHT31;58740;50.672;18.690;2023-04-15T00:56:01;11.25;76.60
71082;SHT31;58740;50.672;18.690;2023-04-15T00:58:29;11.25;76.59
71082;SHT31;58740;50.672;18.690;2023-04-15T01:00:56;11.23;76.58
71082;SHT31;58740;50.672;18.690;2023-04-15T01:03:26;11.22;76.64
71082;SHT31;58740;50.672;18.690;2023-04-15T01:05:55;11.20;76.62
71082;SHT31;58740;50.672;18.690;2023-04-15T01:08:29;11.19;76.65
71082;SHT31;58740;50.672;18.690;2023-04-15T01:10:57;11.19;76.59
71082;SHT31;58740;50.672;18.690;2023-04-15T01:13:29;11.19;76.58
71082;SHT31;58740;50.672;18.690;2023-04-15T01:16:00;11.18;76.62
71082;SHT31;58740;50.672;18.690;2023-04-15T01:18:29;11.17;76.59
71082;SHT31;58740;50.672;18.690;2023-04-15T01:20:59;11.16;76.56
71082;SHT31;58740;50.672;18.690;2023-04-15T01:23:31;11.15;76.60
71082;SHT31;58740;50.672;18.690;2023-04-15T01:26:05;11.12;76.69
71082;SHT31;58740;50.672;18.690;2023-04-15T01:28:36;11.09;76.69
71082;SHT31;58740;50.672;18.690;2023-04-15T01:31:08;11.06;76.76
71082;SHT31;58740;50.672;18.690;2023-04-15T01:33:39;11.05;76.83
71082;SHT31;58740;50.672;18.690;2023-04-15T01:36:09;11.02;76.83
71082;SHT31;58740;50.672;18.690;2023-04-15T01:38:37;10.99;76.85
71082;SHT31;58740;50.672;18.690;2023-04-15T01:41:05;10.99;76.89
71082;SHT31;58740;50.672;18.690;2023-04-15T01:43:35;10.97;76.91
71082;SHT31;58740;50.672;18.690;2023-04-15T01:46:04;10.96;76.89
71082;SHT31;58740;50.672;18.690;2023-04-15T01:48:32;10.95;76.92
71082;SHT31;58740;50.672;18.690;2023-04-15T01:51:00;10.93;76.95
71082;SHT31;58740;50.672;18.690;2023-04-15T01:53:28;10.95;76.90
71082;SHT31;58740;50.672;18.690;2023-04-15T01:55:56;10.95;76.88
71082;SHT31;58740;50.672;18.690;2023-04-15T01:58:24;10.97;76.86
71082;SHT31;58740;50.672;18.690;2023-04-15T02:00:51;10.99;76.80
71082;SHT31;58740;50.672;18.690;2023-04-15T02:03:20;11.01;76.77
71082;SHT31;58740;50.672;18.690;2023-04-15T02:05:48;11.00;76.82
71082;SHT31;58740;50.672;18.690;2023-04-15T02:08:17;11.00;76.80
71082;SHT31;58740;50.672;18.690;2023-04-15T02:10:45;11.00;76.79
71082;SHT31;58740;50.672;18.690;2023-04-15T02:13:12;11.01;76.76
71082;SHT31;58740;50.672;18.690;2023-04-15T02:15:45;11.04;76.73
71082;SHT31;58740;50.672;18.690;2023-04-15T02:18:17;11.07;76.66
71082;SHT31;58740;50.672;18.690;2023-04-15T02:20:44;11.08;76.60
71082;SHT31;58740;50.672;18.690;2023-04-15T02:23:13;11.10;76.60
71082;SHT31;58740;50.672;18.690;2023-04-15T02:25:41;11.12;76.59
71082;SHT31;58740;50.672;18.690;2023-04-15T02:28:20;11.12;76.54
71082;SHT31;58740;50.672;18.690;2023-04-15T02:30:48;11.14;76.52
71082;SHT31;58740;50.672;18.690;2023-04-15T02:33:20;11.16;76.45
71082;SHT31;58740;50.672;18.690;2023-04-15T02:35:48;11.17;76.40
71082;SHT31;58740;50.672;18.690;2023-04-15T02:38:15;11.16;76.39
71082;SHT31;58740;50.672;18.690;2023-04-15T02:40:44;11.16;76.42
71082;SHT31;58740;50.672;18.690;2023-04-15T02:43:12;11.15;76.42
71082;SHT31;58740;50.672;18.690;2023-04-15T02:45:40;11.16;76.51
71082;SHT31;58740;50.672;18.690;2023-04-15T02:48:09;11.14;76.55
71082;SHT31;58740;50.672;18.690;2023-04-15T02:50:37;11.15;76.48
71082;SHT31;58740;50.672;18.690;2023-04-15T02:53:06;11.14;76.47
71082;SHT31;58740;50.672;18.690;2023-04-15T02:55:34;11.13;76.55
71082;SHT31;58740;50.672;18.690;2023-04-15T02:58:02;11.14;76.47
71082;SHT31;58740;50.672;18.690;2023-04-15T03:00:29;11.12;76.40
71082;SHT31;58740;50.672;18.690;2023-04-15T03:03:01;11.11;76.40
71082;SHT31;58740;50.672;18.690;2023-04-15T03:05:31;11.09;76.44
71082;SHT31;58740;50.672;18.690;2023-04-15T03:07:59;11.08;76.46
71082;SHT31;58740;50.672;18.690;2023-04-15T03:10:27;11.06;76.56
71082;SHT31;58740;50.672;18.690;2023-04-15T03:12:55;11.06;76.52
71082;SHT31;58740;50.672;18.690;2023-04-15T03:15:22;11.03;76.51
71082;SHT31;58740;50.672;18.690;2023-04-15T03:17:50;11.00;76.56
71082;SHT31;58740;50.672;18.690;2023-04-15T03:20:18;10.99;76.58
71082;SHT31;58740;50.672;18.690;2023-04-15T03:22:46;10.97;76.52
71082;SHT31;58740;50.672;18.690;2023-04-15T03:25:14;10.95;76.54
71082;SHT31;58740;50.672;18.690;2023-04-15T03:27:42;10.95;76.50
71082;SHT31;58740;50.672;18.690;2023-04-15T03:30:09;10.94;76.46
71082;SHT31;58740;50.672;18.690;2023-04-15T03:32:38;10.94;76.32
71082;SHT31;58740;50.672;18.690;2023-04-15T03:35:06;10.92;76.00
71082;SHT31;58740;50.672;18.690;2023-04-15T03:37:35;10.92;75.72
71082;SHT31;58740;50.672;18.690;2023-04-15T03:40:03;10.91;75.42
71082;SHT31;58740;50.672;18.690;2023-04-15T03:42:32;10.89;75.49
71082;SHT31;58740;50.672;18.690;2023-04-15T03:44:59;10.87;75.23
71082;SHT31;58740;50.672;18.690;2023-04-15T03:47:27;10.86;75.17
71082;SHT31;58740;50.672;18.690;2023-04-15T03:49:55;10.85;75.08
71082;SHT31;58740;50.672;18.690;2023-04-15T03:52:23;10.82;74.94
71082;SHT31;58740;50.672;18.690;2023-04-15T03:54:50;10.79;74.95
71082;SHT31;58740;50.672;18.690;2023-04-15T03:57:18;10.79;74.97
71082;SHT31;58740;50.672;18.690;2023-04-15T03:59:46;10.77;74.99
71082;SHT31;58740;50.672;18.690;2023-04-15T04:02:14;10.76;74.94
71082;SHT31;58740;50.672;18.690;2023-04-15T04:04:42;10.72;74.77
71082;SHT31;58740;50.672;18.690;2023-04-15T04:07:16;10.69;74.68
71082;SHT31;58740;50.672;18.690;2023-04-15T04:09:45;10.64;74.39
71082;SHT31;58740;50.672;18.690;2023-04-15T04:12:13;10.58;74.04
71082;SHT31;58740;50.672;18.690;2023-04-15T04:14:41;10.55;73.97
71082;SHT31;58740;50.672;18.690;2023-04-15T04:17:09;10.52;73.92
71082;SHT31;58740;50.672;18.690;2023-04-15T04:19:37;10.50;73.68
71082;SHT31;58740;50.672;18.690;2023-04-15T04:22:05;10.46;73.59
71082;SHT31;58740;50.672;18.690;2023-04-15T04:24:32;10.45;73.50
71082;SHT31;58740;50.672;18.690;2023-04-15T04:27:00;10.40;73.39
71082;SHT31;58740;50.672;18.690;2023-04-15T04:29:28;10.38;73.18
71082;SHT31;58740;50.672;18.690;2023-04-15T04:31:59;10.34;72.91
71082;SHT31;58740;50.672;18.690;2023-04-15T04:34:26;10.30;72.90
71082;SHT31;58740;50.672;18.690;2023-04-15T04:36:54;10.30;72.96
71082;SHT31;58740;50.672;18.690;2023-04-15T04:39:22;10.29;72.89
71082;SHT31;58740;50.672;18.690;2023-04-15T04:41:50;10.28;72.74
71082;SHT31;58740;50.672;18.690;2023-04-15T04:44:18;10.29;72.78
71082;SHT31;58740;50.672;18.690;2023-04-15T04:46:46;10.30;72.70
71082;SHT31;58740;50.672;18.690;2023-04-15T04:49:14;10.30;72.75
71082;SHT31;58740;50.672;18.690;2023-04-15T04:51:41;10.32;72.79
71082;SHT31;58740;50.672;18.690;2023-04-15T04:54:09;10.33;72.69
71082;SHT31;58740;50.672;18.690;2023-04-15T04:56:37;10.35;72.48
71082;SHT31;58740;50.672;18.690;2023-04-15T04:59:06;10.33;72.36
71082;SHT31;58740;50.672;18.690;2023-04-15T05:01:34;10.32;72.42
71082;SHT31;58740;50.672;18.690;2023-04-15T05:04:02;10.33;72.40
71082;SHT31;58740;50.672;18.690;2023-04-15T05:06:32;10.33;72.46
71082;SHT31;58740;50.672;18.690;2023-04-15T05:09:00;10.34;72.53
71082;SHT31;58740;50.672;18.690;2023-04-15T05:11:28;10.35;72.55
71082;SHT31;58740;50.672;18.690;2023-04-15T05:13:56;10.37;72.33
71082;SHT31;58740;50.672;18.690;2023-04-15T05:16:24;10.37;72.39
71082;SHT31;58740;50.672;18.690;2023-04-15T05:18:52;10.37;72.22
71082;SHT31;58740;50.672;18.690;2023-04-15T05:21:20;10.36;72.18
71082;SHT31;58740;50.672;18.690;2023-04-15T05:23:48;10.36;72.35
71082;SHT31;58740;50.672;18.690;2023-04-15T05:26:15;10.37;72.32
71082;SHT31;58740;50.672;18.690;2023-04-15T05:28:44;10.38;72.51
71082;SHT31;58740;50.672;18.690;2023-04-15T05:31:11;10.39;72.61
71082;SHT31;58740;50.672;18.690;2023-04-15T05:33:40;10.39;72.58
71082;SHT31;58740;50.672;18.690;2023-04-15T05:36:08;10.39;72.61
71082;SHT31;58740;50.672;18.690;2023-04-15T05:38:36;10.42;72.67
71082;SHT31;58740;50.672;18.690;2023-04-15T05:41:03;10.44;72.63
71082;SHT31;58740;50.672;18.690;2023-04-15T05:43:31;10.48;72.49
71082;SHT31;58740;50.672;18.690;2023-04-15T05:45:59;10.49;72.38
71082;SHT31;58740;50.672;18.690;2023-04-15T05:48:27;10.48;72.33
71082;SHT31;58740;50.672;18.690;2023-04-15T05:50:55;10.48;72.29
71082;SHT31;58740;50.672;18.690;2023-04-15T05:53:22;10.47;71.97
71082;SHT31;58740;50.672;18.690;2023-04-15T05:55:54;10.48;71.84
71082;SHT31;58740;50.672;18.690;2023-04-15T05:58:22;10.47;71.65
71082;SHT31;58740;50.672;18.690;2023-04-15T06:00:49;10.48;71.73
71082;SHT31;58740;50.672;18.690;2023-04-15T06:03:17;10.48;71.82
71082;SHT31;58740;50.672;18.690;2023-04-15T06:06:02;10.47;71.56
71082;SHT31;58740;50.672;18.690;2023-04-15T06:08:30;10.46;71.30
71082;SHT31;58740;50.672;18.690;2023-04-15T06:10:58;10.46;71.20
71082;SHT31;58740;50.672;18.690;2023-04-15T06:13:26;10.45;71.08
71082;SHT31;58740;50.672;18.690;2023-04-15T06:15:54;10.42;70.92
71082;SHT31;58740;50.672;18.690;2023-04-15T06:18:21;10.42;70.73
71082;SHT31;58740;50.672;18.690;2023-04-15T06:20:49;10.41;70.64
71082;SHT31;58740;50.672;18.690;2023-04-15T06:23:17;10.40;70.37
71082;SHT31;58740;50.672;18.690;2023-04-15T06:25:45;10.40;70.19
71082;SHT31;58740;50.672;18.690;2023-04-15T06:28:13;10.38;70.03
71082;SHT31;58740;50.672;18.690;2023-04-15T06:30:40;10.38;70.16
71082;SHT31;58740;50.672;18.690;2023-04-15T06:33:08;10.36;70.14
71082;SHT31;58740;50.672;18.690;2023-04-15T06:35:37;10.36;70.15
71082;SHT31;58740;50.672;18.690;2023-04-15T06:38:05;10.35;69.98
71082;SHT31;58740;50.672;18.690;2023-04-15T06:40:33;10.34;69.88
71082;SHT31;58740;50.672;18.690;2023-04-15T06:43:01;10.35;70.11
71082;SHT31;58740;50.672;18.690;2023-04-15T06:45:29;10.35;70.06
71082;SHT31;58740;50.672;18.690;2023-04-15T06:47:57;10.36;69.91
71082;SHT31;58740;50.672;18.690;2023-04-15T06:50:25;10.40;69.83
71082;SHT31;58740;50.672;18.690;2023-04-15T06:52:54;10.42;69.43
71082;SHT31;58740;50.672;18.690;2023-04-15T06:55:22;10.47;69.29
71082;SHT31;58740;50.672;18.690;2023-04-15T06:57:50;10.52;69.14
71082;SHT31;58740;50.672;18.690;2023-04-15T07:00:17;10.55;69.13
71082;SHT31;58740;50.672;18.690;2023-04-15T07:02:46;10.56;69.02
71082;SHT31;58740;50.672;18.690;2023-04-15T07:05:14;10.58;69.07
71082;SHT31;58740;50.672;18.690;2023-04-15T07:07:42;10.60;69.16
71082;SHT31;58740;50.672;18.690;2023-04-15T07:10:10;10.62;69.24
71082;SHT31;58740;50.672;18.690;2023-04-15T07:12:38;10.63;69.13
71082;SHT31;58740;50.672;18.690;2023-04-15T07:15:06;10.66;69.59
71082;SHT31;58740;50.672;18.690;2023-04-15T07:17:34;10.73;69.13
71082;SHT31;58740;50.672;18.690;2023-04-15T07:20:02;10.80;69.11
71082;SHT31;58740;50.672;18.690;2023-04-15T07:22:31;10.89;68.96
71082;SHT31;58740;50.672;18.690;2023-04-15T07:24:59;11.01;68.24
71082;SHT31;58740;50.672;18.690;2023-04-15T07:27:27;11.19;68.12
71082;SHT31;58740;50.672;18.690;2023-04-15T07:29:55;11.30;66.83
71082;SHT31;58740;50.672;18.690;2023-04-15T07:32:22;11.31;66.53
71082;SHT31;58740;50.672;18.690;2023-04-15T07:34:50;11.32;67.05
71082;SHT31;58740;50.672;18.690;2023-04-15T07:37:18;11.36;66.69
71082;SHT31;58740;50.672;18.690;2023-04-15T07:39:46;11.42;66.86
71082;SHT31;58740;50.672;18.690;2023-04-15T07:42:14;11.44;66.30
71082;SHT31;58740;50.672;18.690;2023-04-15T07:44:42;11.48;66.63
71082;SHT31;58740;50.672;18.690;2023-04-15T07:47:11;11.53;66.23
71082;SHT31;58740;50.672;18.690;2023-04-15T07:49:40;11.56;65.95
71082;SHT31;58740;50.672;18.690;2023-04-15T07:52:09;11.59;65.56
71082;SHT31;58740;50.672;18.690;2023-04-15T07:54:37;11.61;65.87
71082;SHT31;58740;50.672;18.690;2023-04-15T07:57:06;11.67;64.87
71082;SHT31;58740;50.672;18.690;2023-04-15T07:59:34;11.79;64.17
71082;SHT31;58740;50.672;18.690;2023-04-15T08:02:02;11.95;64.19
71082;SHT31;58740;50.672;18.690;2023-04-15T08:04:30;12.13;63.77
71082;SHT31;58740;50.672;18.690;2023-04-15T08:06:58;12.27;61.75
71082;SHT31;58740;50.672;18.690;2023-04-15T08:09:26;12.34;60.43
71082;SHT31;58740;50.672;18.690;2023-04-15T08:11:54;12.47;61.74
71082;SHT31;58740;50.672;18.690;2023-04-15T08:14:23;12.55;59.21
71082;SHT31;58740;50.672;18.690;2023-04-15T08:16:51;12.57;59.69
71082;SHT31;58740;50.672;18.690;2023-04-15T08:19:18;12.54;59.07
71082;SHT31;58740;50.672;18.690;2023-04-15T08:21:47;12.52;59.26
71082;SHT31;58740;50.672;18.690;2023-04-15T08:24:14;12.54;59.95
71082;SHT31;58740;50.672;18.690;2023-04-15T08:26:42;12.59;60.42
71082;SHT31;58740;50.672;18.690;2023-04-15T08:29:10;12.68;59.42
71082;SHT31;58740;50.672;18.690;2023-04-15T08:31:37;12.80;58.63
71082;SHT31;58740;50.672;18.690;2023-04-15T08:34:05;12.90;58.77
71082;SHT31;58740;50.672;18.690;2023-04-15T08:36:33;13.04;58.47
71082;SHT31;58740;50.672;18.690;2023-04-15T08:39:01;13.20;57.43
71082;SHT31;58740;50.672;18.690;2023-04-15T08:41:33;13.30;56.83
71082;SHT31;58740;50.672;18.690;2023-04-15T08:44:25;13.35;56.34
71082;SHT31;58740;50.672;18.690;2023-04-15T08:47:01;13.42;57.44
71082;SHT31;58740;50.672;18.690;2023-04-15T08:49:32;13.50;55.79
71082;SHT31;58740;50.672;18.690;2023-04-15T08:52:06;13.50;54.28
71082;SHT31;58740;50.672;18.690;2023-04-15T08:54:35;13.53;55.92
71082;SHT31;58740;50.672;18.690;2023-04-15T08:57:05;13.63;57.24
71082;SHT31;58740;50.672;18.690;2023-04-15T08:59:34;13.73;56.28
71082;SHT31;58740;50.672;18.690;2023-04-15T09:02:02;13.74;55.30
71082;SHT31;58740;50.672;18.690;2023-04-15T09:04:30;13.74;54.26
71082;SHT31;58740;50.672;18.690;2023-04-15T09:06:59;13.74;52.86
71082;SHT31;58740;50.672;18.690;2023-04-15T09:09:27;13.74;52.48
71082;SHT31;58740;50.672;18.690;2023-04-15T09:11:55;13.75;53.33
71082;SHT31;58740;50.672;18.690;2023-04-15T09:14:23;13.81;54.40
71082;SHT31;58740;50.672;18.690;2023-04-15T09:16:57;13.84;54.93
71082;SHT31;58740;50.672;18.690;2023-04-15T09:19:27;13.91;54.74
71082;SHT31;58740;50.672;18.690;2023-04-15T09:21:57;13.98;54.65
71082;SHT31;58740;50.672;18.690;2023-04-15T09:24:32;13.97;53.77
71082;SHT31;58740;50.672;18.690;2023-04-15T09:27:04;13.86;53.45
71082;SHT31;58740;50.672;18.690;2023-04-15T09:29:33;13.75;53.92
71082;SHT31;58740;50.672;18.690;2023-04-15T09:32:11;13.71;54.01
71082;SHT31;58740;50.672;18.690;2023-04-15T09:34:41;13.72;54.13
71082;SHT31;58740;50.672;18.690;2023-04-15T09:37:09;13.73;53.72
71082;SHT31;58740;50.672;18.690;2023-04-15T09:39:57;13.75;54.13
71082;SHT31;58740;50.672;18.690;2023-04-15T09:42:25;13.79;52.67
71082;SHT31;58740;50.672;18.690;2023-04-15T09:44:54;13.80;53.12
71082;SHT31;58740;50.672;18.690;2023-04-15T09:47:31;13.84;52.68
71082;SHT31;58740;50.672;18.690;2023-04-15T09:49:59;13.88;52.30
71082;SHT31;58740;50.672;18.690;2023-04-15T09:52:28;13.97;52.26
71082;SHT31;58740;50.672;18.690;2023-04-15T09:54:57;14.05;52.07
71082;SHT31;58740;50.672;18.690;2023-04-15T09:57:33;14.14;53.07
71082;SHT31;58740;50.672;18.690;2023-04-15T10:00:03;14.23;53.21
71082;SHT31;58740;50.672;18.690;2023-04-15T10:02:38;14.27;51.42
71082;SHT31;58740;50.672;18.690;2023-04-15T10:05:12;14.26;49.76
71082;SHT31;58740;50.672;18.690;2023-04-15T10:07:44;14.24;51.54
71082;SHT31;58740;50.672;18.690;2023-04-15T10:10:13;14.25;52.19
71082;SHT31;58740;50.672;18.690;2023-04-15T10:12:41;14.23;52.41
71082;SHT31;58740;50.672;18.690;2023-04-15T10:15:13;14.29;53.37
71082;SHT31;58740;50.672;18.690;2023-04-15T10:17:44;14.33;52.13
71082;SHT31;58740;50.672;18.690;2023-04-15T10:20:12;14.35;52.72
71082;SHT31;58740;50.672;18.690;2023-04-15T10:22:42;14.35;52.31
71082;SHT31;58740;50.672;18.690;2023-04-15T10:25:13;14.31;52.37
71082;SHT31;58740;50.672;18.690;2023-04-15T10:27:42;14.31;52.60
71082;SHT31;58740;50.672;18.690;2023-04-15T10:30:11;14.28;52.72
71082;SHT31;58740;50.672;18.690;2023-04-15T10:32:39;14.26;52.99
71082;SHT31;58740;50.672;18.690;2023-04-15T10:35:08;14.23;53.42
71082;SHT31;58740;50.672;18.690;2023-04-15T10:37:37;14.19;52.97
71082;SHT31;58740;50.672;18.690;2023-04-15T10:42:54;14.21;52.16
71082;SHT31;58740;50.672;18.690;2023-04-15T10:45:33;14.23;52.28
71082;SHT31;58740;50.672;18.690;2023-04-15T10:48:05;14.22;52.44
71082;SHT31;58740;50.672;18.690;2023-04-15T10:50:36;14.22;53.52
71082;SHT31;58740;50.672;18.690;2023-04-15T10:53:04;14.21;52.51
71082;SHT31;58740;50.672;18.690;2023-04-15T10:55:32;14.17;51.12
71082;SHT31;58740;50.672;18.690;2023-04-15T10:58:01;14.08;51.12
71082;SHT31;58740;50.672;18.690;2023-04-15T11:00:30;14.00;51.11
71082;SHT31;58740;50.672;18.690;2023-04-15T11:03:05;13.96;51.91
71082;SHT31;58740;50.672;18.690;2023-04-15T11:08:11;13.91;51.73
71082;SHT31;58740;50.672;18.690;2023-04-15T11:15:39;13.80;51.12
71082;SHT31;58740;50.672;18.690;2023-04-15T11:18:15;13.81;51.29
71082;SHT31;58740;50.672;18.690;2023-04-15T11:20:46;13.81;51.10
71082;SHT31;58740;50.672;18.690;2023-04-15T11:23:27;13.78;50.45
71082;SHT31;58740;50.672;18.690;2023-04-15T11:26:08;13.78;50.33
71082;SHT31;58740;50.672;18.690;2023-04-15T11:28:39;13.77;50.46
71082;SHT31;58740;50.672;18.690;2023-04-15T11:31:14;13.77;51.29
71082;SHT31;58740;50.672;18.690;2023-04-15T11:33:54;13.81;51.36
71082;SHT31;58740;50.672;18.690;2023-04-15T11:36:26;13.82;51.30
71082;SHT31;58740;50.672;18.690;2023-04-15T11:38:57;13.83;50.61
71082;SHT31;58740;50.672;18.690;2023-04-15T11:41:27;13.83;50.37
71082;SHT31;58740;50.672;18.690;2023-04-15T11:43:54;13.84;50.61
71082;SHT31;58740;50.672;18.690;2023-04-15T11:46:27;13.87;51.16
71082;SHT31;58740;50.672;18.690;2023-04-15T11:48:58;13.91;51.03
71082;SHT31;58740;50.672;18.690;2023-04-15T11:51:26;13.95;51.16
71082;SHT31;58740;50.672;18.690;2023-04-15T11:54:00;13.98;51.24
71082;SHT31;58740;50.672;18.690;2023-04-15T11:56:30;14.01;51.34
71082;SHT31;58740;50.672;18.690;2023-04-15T11:58:58;14.04;51.42
71082;SHT31;58740;50.672;18.690;2023-04-15T12:01:44;14.08;51.98
71082;SHT31;58740;50.672;18.690;2023-04-15T12:04:15;14.15;52.64
71082;SHT31;58740;50.672;18.690;2023-04-15T12:06:51;14.24;52.55
71082;SHT31;58740;50.672;18.690;2023-04-15T12:09:19;14.27;51.32
71082;SHT31;58740;50.672;18.690;2023-04-15T12:11:48;14.27;51.00
71082;SHT31;58740;50.672;18.690;2023-04-15T12:14:25;14.28;50.75
71082;SHT31;58740;50.672;18.690;2023-04-15T12:17:02;14.26;50.46
71082;SHT31;58740;50.672;18.690;2023-04-15T12:19:36;14.26;51.13
71082;SHT31;58740;50.672;18.690;2023-04-15T12:22:11;14.28;51.09
71082;SHT31;58740;50.672;18.690;2023-04-15T12:24:42;14.28;50.78
71082;SHT31;58740;50.672;18.690;2023-04-15T12:27:14;14.28;51.20
71082;SHT31;58740;50.672;18.690;2023-04-15T12:29:43;14.30;51.19
71082;SHT31;58740;50.672;18.690;2023-04-15T12:32:14;14.33;51.50
71082;SHT31;58740;50.672;18.690;2023-04-15T12:34:50;14.35;51.04
71082;SHT31;58740;50.672;18.690;2023-04-15T12:37:20;14.36;51.24
71082;SHT31;58740;50.672;18.690;2023-04-15T12:39:48;14.38;51.94
71082;SHT31;58740;50.672;18.690;2023-04-15T12:42:18;14.39;51.97
71082;SHT31;58740;50.672;18.690;2023-04-15T12:44:46;14.41;51.88
71082;SHT31;58740;50.672;18.690;2023-04-15T12:47:13;14.41;52.15
71082;SHT31;58740;50.672;18.690;2023-04-15T12:49:41;14.44;51.75
71082;SHT31;58740;50.672;18.690;2023-04-15T12:52:09;14.45;51.88
71082;SHT31;58740;50.672;18.690;2023-04-15T12:54:37;14.45;51.95
71082;SHT31;58740;50.672;18.690;2023-04-15T12:57:05;14.44;51.49
71082;SHT31;58740;50.672;18.690;2023-04-15T12:59:34;14.41;51.25
71082;SHT31;58740;50.672;18.690;2023-04-15T13:02:02;14.40;51.08
71082;SHT31;58740;50.672;18.690;2023-04-15T13:04:31;14.39;51.30
71082;SHT31;58740;50.672;18.690;2023-04-15T13:07:00;14.40;51.13
71082;SHT31;58740;50.672;18.690;2023-04-15T13:09:28;14.40;50.45
71082;SHT31;58740;50.672;18.690;2023-04-15T13:11:56;14.40;50.19
71082;SHT31;58740;50.672;18.690;2023-04-15T13:14:24;14.41;51.01
71082;SHT31;58740;50.672;18.690;2023-04-15T13:16:53;14.42;51.51
71082;SHT31;58740;50.672;18.690;2023-04-15T13:19:21;14.44;51.80
71082;SHT31;58740;50.672;18.690;2023-04-15T13:21:49;14.42;51.20
71082;SHT31;58740;50.672;18.690;2023-04-15T13:24:17;14.40;51.23
71082;SHT31;58740;50.672;18.690;2023-04-15T13:26:45;14.39;51.17
71082;SHT31;58740;50.672;18.690;2023-04-15T13:29:15;14.40;50.90
71082;SHT31;58740;50.672;18.690;2023-04-15T13:31:43;14.41;50.71
71082;SHT31;58740;50.672;18.690;2023-04-15T13:34:11;14.41;50.70
71082;SHT31;58740;50.672;18.690;2023-04-15T13:36:39;14.42;50.15
71082;SHT31;58740;50.672;18.690;2023-04-15T13:39:06;14.41;49.64
71082;SHT31;58740;50.672;18.690;2023-04-15T13:41:34;14.38;49.49
71082;SHT31;58740;50.672;18.690;2023-04-15T13:44:03;14.36;50.51
71082;SHT31;58740;50.672;18.690;2023-04-15T13:46:32;14.35;50.61
71082;SHT31;58740;50.672;18.690;2023-04-15T13:49:00;14.35;50.99
71082;SHT31;58740;50.672;18.690;2023-04-15T13:51:28;14.36;51.05
71082;SHT31;58740;50.672;18.690;2023-04-15T13:53:55;14.36;51.01
71082;SHT31;58740;50.672;18.690;2023-04-15T13:56:24;14.35;50.66
71082;SHT31;58740;50.672;18.690;2023-04-15T13:58:52;14.34;50.82
71082;SHT31;58740;50.672;18.690;2023-04-15T14:01:21;14.35;50.62
71082;SHT31;58740;50.672;18.690;2023-04-15T14:03:48;14.36;50.67
71082;SHT31;58740;50.672;18.690;2023-04-15T14:06:17;14.36;50.78
71082;SHT31;58740;50.672;18.690;2023-04-15T14:08:44;14.36;50.79
71082;SHT31;58740;50.672;18.690;2023-04-15T14:11:12;14.35;50.94
71082;SHT31;58740;50.672;18.690;2023-04-15T14:13:40;14.33;50.89
71082;SHT31;58740;50.672;18.690;2023-04-15T14:16:08;14.31;51.10
71082;SHT31;58740;50.672;18.690;2023-04-15T14:18:35;14.27;51.38
71082;SHT31;58740;50.672;18.690;2023-04-15T14:21:04;14.25;51.31
71082;SHT31;58740;50.672;18.690;2023-04-15T14:23:33;14.20;51.43
71082;SHT31;58740;50.672;18.690;2023-04-15T14:26:01;14.17;51.85
71082;SHT31;58740;50.672;18.690;2023-04-15T14:28:29;14.14;51.65
71082;SHT31;58740;50.672;18.690;2023-04-15T14:30:57;14.11;51.83
71082;SHT31;58740;50.672;18.690;2023-04-15T14:33:25;14.10;51.60
71082;SHT31;58740;50.672;18.690;2023-04-15T14:35:53;14.08;51.57
71082;SHT31;58740;50.672;18.690;2023-04-15T14:38:21;14.05;51.48
71082;SHT31;58740;50.672;18.690;2023-04-15T14:40:49;14.05;51.73
71082;SHT31;58740;50.672;18.690;2023-04-15T14:43:17;14.04;52.03
71082;SHT31;58740;50.672;18.690;2023-04-15T14:45:44;14.04;52.23
71082;SHT31;58740;50.672;18.690;2023-04-15T14:48:12;14.03;52.23
71082;SHT31;58740;50.672;18.690;2023-04-15T14:50:40;14.01;52.30
71082;SHT31;58740;50.672;18.690;2023-04-15T14:53:08;14.00;53.17
71082;SHT31;58740;50.672;18.690;2023-04-15T14:55:36;13.98;54.13
71082;SHT31;58740;50.672;18.690;2023-04-15T14:58:05;13.92;54.62
71082;SHT31;58740;50.672;18.690;2023-04-15T15:00:36;13.86;54.61
71082;SHT31;58740;50.672;18.690;2023-04-15T15:03:07;13.81;54.55
71082;SHT31;58740;50.672;18.690;2023-04-15T15:05:43;13.78;54.61
71082;SHT31;58740;50.672;18.690;2023-04-15T15:08:13;13.74;54.72
71082;SHT31;58740;50.672;18.690;2023-04-15T15:10:41;13.74;55.15
71082;SHT31;58740;50.672;18.690;2023-04-15T15:13:16;13.73;55.51
71082;SHT31;58740;50.672;18.690;2023-04-15T15:15:45;13.71;55.86
71082;SHT31;58740;50.672;18.690;2023-04-15T15:18:16;13.71;56.45
71082;SHT31;58740;50.672;18.690;2023-04-15T15:20:46;13.71;57.16
71082;SHT31;58740;50.672;18.690;2023-04-15T15:23:14;13.71;57.91
71082;SHT31;58740;50.672;18.690;2023-04-15T15:25:42;13.71;58.31
71082;SHT31;58740;50.672;18.690;2023-04-15T15:28:12;13.72;58.68
71082;SHT31;58740;50.672;18.690;2023-04-15T15:30:39;13.73;58.97
71082;SHT31;58740;50.672;18.690;2023-04-15T15:33:07;13.72;58.98
71082;SHT31;58740;50.672;18.690;2023-04-15T15:35:35;13.71;58.97
71082;SHT31;58740;50.672;18.690;2023-04-15T15:38:02;13.72;59.50